createdAt,value
2019-01-20T00:00:53.071Z,20.27
2019-01-20T00:03:42.322Z,23.15
2019-01-20T00:06:34.420Z,24.92
2019-01-20T00:09:25.870Z,26.68
2019-01-20T00:12:15.479Z,23.27
2019-01-20T00:15:06.102Z,23.38
2019-01-20T00:17:56.448Z,21.93
2019-01-20T00:20:45.760Z,21.30
2019-01-20T00:23:34.902Z,23.10
2019-01-20T00:26:24.171Z,22.35
2019-01-20T00:29:13.361Z,23.65
2019-01-20T00:32:02.585Z,22.10
2019-01-20T00:34:51.838Z,23.90
2019-01-20T00:37:42.708Z,21.17
2019-01-20T00:40:32.658Z,23.70
2019-01-20T00:43:22.149Z,22.25
2019-01-20T00:46:11.478Z,21.80
2019-01-20T00:49:00.658Z,29.02
2019-01-20T00:51:50.012Z,27.22
2019-01-20T00:54:39.381Z,25.12
2019-01-20T00:57:28.470Z,23.35
2019-01-20T01:00:20.808Z,23.65
2019-01-20T01:03:10.060Z,23.42
2019-01-20T01:05:59.398Z,22.25
2019-01-20T01:08:48.741Z,22.30
2019-01-20T01:11:38.119Z,23.38
2019-01-20T01:14:27.468Z,26.55
2019-01-20T01:17:16.881Z,26.70
2019-01-20T01:20:07.731Z,24.92
2019-01-20T01:22:56.978Z,23.92
2019-01-20T01:25:46.528Z,25.40
2019-01-20T01:28:35.761Z,22.52
2019-01-20T01:31:25.061Z,25.23
2019-01-20T01:34:14.188Z,24.80
2019-01-20T01:37:03.489Z,23.25
2019-01-20T01:39:52.988Z,26.10
2019-01-20T01:42:42.215Z,25.68
2019-01-20T01:45:31.440Z,25.82
2019-01-20T01:48:20.670Z,23.75
2019-01-20T01:51:09.929Z,24.98
2019-01-20T01:53:59.244Z,26.82
2019-01-20T01:56:48.531Z,23.77
2019-01-20T01:59:37.762Z,25.70
2019-01-20T02:02:27.460Z,25.23
2019-01-20T02:05:16.864Z,25.97
2019-01-20T02:08:06.269Z,26.00
2019-01-20T02:10:55.946Z,22.98
2019-01-20T02:13:45.119Z,25.62
2019-01-20T02:16:34.611Z,21.45
2019-01-20T02:19:24.091Z,21.65
2019-01-20T02:22:14.499Z,22.73
2019-01-20T02:25:04.058Z,26.60
2019-01-20T02:27:55.571Z,23.75
2019-01-20T02:30:44.773Z,24.45
2019-01-20T02:33:34.452Z,22.37
2019-01-20T02:36:23.661Z,24.60
2019-01-20T02:39:12.870Z,23.83
2019-01-20T02:42:01.952Z,23.42
2019-01-20T02:44:51.192Z,22.30
2019-01-20T02:47:40.712Z,21.93
2019-01-20T02:50:31.053Z,23.57
2019-01-20T02:53:20.270Z,26.12
2019-01-20T02:56:09.733Z,24.27
2019-01-20T02:58:58.968Z,24.65
2019-01-20T03:01:48.332Z,23.90
2019-01-20T03:04:37.551Z,25.25
2019-01-20T03:07:26.879Z,23.00
2019-01-20T03:10:16.759Z,24.07
2019-01-20T03:13:05.983Z,25.20
2019-01-20T03:15:58.379Z,26.27
2019-01-20T03:18:47.832Z,25.17
2019-01-20T03:21:37.320Z,24.35
2019-01-20T03:24:26.678Z,24.60
2019-01-20T03:27:16.058Z,26.05
2019-01-20T03:30:07.672Z,23.57
2019-01-20T03:32:57.393Z,22.98
2019-01-20T03:35:46.520Z,25.17
2019-01-20T03:38:35.774Z,22.25
2019-01-20T03:41:24.911Z,25.55
2019-01-20T03:44:14.121Z,26.27
2019-01-20T03:47:03.458Z,24.72
2019-01-20T03:49:52.824Z,26.90
2019-01-20T03:52:42.058Z,26.35
2019-01-20T03:55:31.379Z,27.73
2019-01-20T03:58:20.550Z,25.70
2019-01-20T04:01:09.763Z,25.12
2019-01-20T04:03:59.136Z,26.35
2019-01-20T04:06:48.461Z,25.30
2019-01-20T04:09:37.749Z,26.70
2019-01-20T04:12:30.655Z,24.70
2019-01-20T04:15:20.001Z,24.43
2019-01-20T04:18:09.771Z,26.50
2019-01-20T04:20:59.541Z,26.27
2019-01-20T04:23:50.228Z,23.65
2019-01-20T04:26:43.412Z,24.18
2019-01-20T04:29:33.781Z,25.85
2019-01-20T04:32:23.243Z,25.57
2019-01-20T04:35:13.253Z,24.55
2019-01-20T04:38:04.583Z,26.70
2019-01-20T04:40:54.853Z,24.25
2019-01-20T04:43:44.936Z,23.85
2019-01-20T04:46:34.609Z,23.77
2019-01-20T04:49:24.819Z,25.20
2019-01-20T04:52:16.550Z,26.15
2019-01-20T04:55:08.471Z,25.08
2019-01-20T04:57:58.295Z,25.90
2019-01-20T05:00:50.082Z,25.55
2019-01-20T05:03:39.803Z,25.77
2019-01-20T05:06:31.014Z,25.60
2019-01-20T05:09:21.828Z,26.10
2019-01-20T05:12:14.496Z,28.02
2019-01-20T05:15:04.992Z,26.35
2019-01-20T05:17:54.983Z,25.25
2019-01-20T05:20:44.590Z,26.45
2019-01-20T05:23:35.392Z,25.70
2019-01-20T05:26:25.159Z,24.37
2019-01-20T05:29:15.051Z,23.18
2019-01-20T05:32:04.870Z,27.25
2019-01-20T05:34:55.032Z,26.50
2019-01-20T05:37:44.072Z,25.68
2019-01-20T05:40:33.935Z,25.57
2019-01-20T05:43:35.880Z,27.48
2019-01-20T05:46:25.738Z,25.68
2019-01-20T05:49:15.188Z,26.68
2019-01-20T05:52:04.852Z,28.92
2019-01-20T05:54:56.793Z,24.07
2019-01-20T05:57:46.114Z,27.05
2019-01-20T06:00:36.144Z,25.75
2019-01-20T06:03:25.783Z,27.30
2019-01-20T06:06:14.946Z,25.72
2019-01-20T06:09:05.691Z,23.10
2019-01-20T06:11:55.243Z,26.48
2019-01-20T06:14:44.478Z,28.90
2019-01-20T06:17:33.942Z,27.62
2019-01-20T06:20:23.739Z,26.48
2019-01-20T06:23:13.090Z,28.05
2019-01-20T06:26:02.541Z,28.70
2019-01-20T06:28:52.009Z,29.20
2019-01-20T06:31:43.213Z,26.37
2019-01-20T06:34:33.080Z,25.60
2019-01-20T06:37:23.426Z,26.02
2019-01-20T06:40:13.743Z,25.50
2019-01-20T06:43:03.865Z,28.90
2019-01-20T06:45:53.903Z,27.00
2019-01-20T06:48:44.042Z,27.93
2019-01-20T06:51:33.616Z,27.87
2019-01-20T06:54:28.195Z,27.50
2019-01-20T06:57:17.760Z,30.45
2019-01-20T07:00:10.487Z,27.20
2019-01-20T07:03:00.505Z,27.87
2019-01-20T07:05:49.687Z,26.57
2019-01-20T07:08:38.878Z,26.87
2019-01-20T07:11:28.217Z,25.02
2019-01-20T07:14:17.758Z,26.25
2019-01-20T07:17:06.968Z,29.25
2019-01-20T07:19:56.509Z,26.62
2019-01-20T07:22:45.729Z,27.27
2019-01-20T07:25:35.018Z,25.52
2019-01-20T07:28:24.231Z,27.98
2019-01-20T07:31:13.687Z,28.55
2019-01-20T07:34:03.598Z,29.98
2019-01-20T07:36:53.791Z,28.80
2019-01-20T07:39:43.654Z,28.47
2019-01-20T07:42:39.805Z,28.45
2019-01-20T07:45:29.641Z,27.80
2019-01-20T07:48:19.431Z,27.98
2019-01-20T07:51:11.031Z,28.60
2019-01-20T07:54:00.727Z,30.23
2019-01-20T07:56:50.688Z,29.48
2019-01-20T07:59:40.592Z,28.25
2019-01-20T08:02:32.204Z,28.70
2019-01-20T08:05:22.054Z,28.42
2019-01-20T08:08:12.199Z,31.25
2019-01-20T08:11:08.146Z,28.60
2019-01-20T08:13:58.272Z,29.90
2019-01-20T08:16:48.758Z,25.88
2019-01-20T08:19:41.590Z,27.80
2019-01-20T08:22:31.533Z,27.30
2019-01-20T08:25:22.041Z,29.63
2019-01-20T08:28:13.037Z,32.15
2019-01-20T08:31:02.000Z,29.57
2019-01-20T08:33:51.142Z,28.38
2019-01-20T08:36:40.368Z,30.37
2019-01-20T08:39:29.662Z,31.10
2019-01-20T08:42:19.227Z,27.20
2019-01-20T08:45:13.567Z,29.90
2019-01-20T08:48:07.411Z,28.67
2019-01-20T08:50:56.970Z,31.42
2019-01-20T08:53:46.118Z,26.77
2019-01-20T08:56:35.343Z,30.17
2019-01-20T08:59:24.849Z,31.82
2019-01-20T09:02:14.008Z,26.80
2019-01-20T09:05:03.270Z,28.05
2019-01-20T09:07:52.620Z,27.75
2019-01-20T09:10:41.870Z,30.43
2019-01-20T09:13:31.207Z,28.65
2019-01-20T09:16:20.782Z,27.37
2019-01-20T09:19:10.009Z,29.25
2019-01-20T09:21:59.228Z,26.77
2019-01-20T09:24:48.478Z,29.02
2019-01-20T09:27:41.018Z,31.55
2019-01-20T09:30:30.717Z,29.23
2019-01-20T09:33:24.796Z,31.00
2019-01-20T09:36:14.171Z,29.80
2019-01-20T09:39:07.052Z,29.15
2019-01-20T09:41:57.446Z,30.35
2019-01-20T09:44:54.466Z,29.55
2019-01-20T09:47:43.757Z,30.60
2019-01-20T09:50:33.128Z,29.32
2019-01-20T09:53:22.427Z,31.55
2019-01-20T09:56:11.629Z,31.70
2019-01-20T09:59:00.797Z,29.70
2019-01-20T10:01:50.228Z,31.10
2019-01-20T10:04:39.488Z,27.67
2019-01-20T10:07:29.734Z,31.50
2019-01-20T10:10:22.177Z,27.15
2019-01-20T10:13:11.570Z,31.73
2019-01-20T10:16:00.809Z,30.25
2019-01-20T10:18:49.901Z,27.52
2019-01-20T10:21:38.998Z,31.42
2019-01-20T10:24:28.248Z,28.47
2019-01-20T10:27:17.561Z,29.07
2019-01-20T10:30:11.775Z,29.90
2019-01-20T10:33:03.366Z,40.40
2019-01-20T10:35:57.428Z,34.78
2019-01-20T10:38:46.761Z,28.70
2019-01-20T10:41:36.879Z,31.60
2019-01-20T10:44:27.068Z,31.50
2019-01-20T10:47:16.730Z,31.02
2019-01-20T10:50:10.444Z,27.73
2019-01-20T10:52:59.970Z,30.52
2019-01-20T10:55:49.171Z,30.75
2019-01-20T10:58:38.409Z,31.07
2019-01-20T11:01:27.619Z,27.15
2019-01-20T11:04:16.969Z,26.82
2019-01-20T11:07:06.680Z,25.82
2019-01-20T11:09:56.129Z,29.52
2019-01-20T11:12:45.278Z,25.72
2019-01-20T11:15:34.518Z,26.02
2019-01-20T11:18:24.058Z,24.25
2019-01-20T11:21:13.298Z,24.20
2019-01-20T11:24:02.875Z,23.12
2019-01-20T11:26:52.863Z,27.13
2019-01-20T11:29:50.087Z,24.27
2019-01-20T11:32:42.640Z,25.75
2019-01-20T11:35:31.778Z,26.77
2019-01-20T11:38:23.604Z,26.52
2019-01-20T11:41:16.548Z,27.65
2019-01-20T11:44:08.693Z,24.57
2019-01-20T11:47:03.809Z,27.75
2019-01-20T11:49:53.655Z,26.30
2019-01-20T11:52:43.546Z,26.57
2019-01-20T11:55:33.668Z,26.68
2019-01-20T11:58:23.640Z,26.80
2019-01-20T12:01:14.660Z,28.35
2019-01-20T12:04:04.834Z,27.20
2019-01-20T12:06:55.012Z,28.90
2019-01-20T12:09:44.519Z,27.90
2019-01-20T12:12:33.702Z,26.45
2019-01-20T12:15:23.200Z,28.10
2019-01-20T12:18:12.578Z,29.55
2019-01-20T12:21:02.079Z,22.90
2019-01-20T12:23:51.191Z,23.10
2019-01-20T12:26:40.691Z,18.80
2019-01-20T12:29:30.113Z,16.95
2019-01-20T12:32:19.402Z,16.60
2019-01-20T12:35:08.949Z,17.20
2019-01-20T12:37:59.391Z,21.20
2019-01-20T12:40:49.563Z,16.12
2019-01-20T12:43:39.257Z,15.50
2019-01-20T12:46:28.972Z,16.37
2019-01-20T12:49:18.740Z,18.55
2019-01-20T12:52:08.754Z,19.62
2019-01-20T12:55:00.311Z,20.68
2019-01-20T12:57:50.493Z,17.77
2019-01-20T13:00:40.638Z,17.20
2019-01-20T13:03:33.075Z,17.98
2019-01-20T13:06:22.711Z,15.85
2019-01-20T13:09:12.140Z,16.57
2019-01-20T13:12:01.800Z,16.67
2019-01-20T13:14:52.037Z,16.65
2019-01-20T13:17:41.139Z,16.12
2019-01-20T13:20:30.440Z,15.75
2019-01-20T13:23:20.032Z,17.40
2019-01-20T13:26:09.452Z,18.50
2019-01-20T13:28:59.768Z,18.80
2019-01-20T13:31:51.578Z,15.03
2019-01-20T13:34:44.299Z,17.32
2019-01-20T13:37:34.677Z,16.87
2019-01-20T13:40:32.412Z,15.23
2019-01-20T13:43:23.684Z,14.18
2019-01-20T13:46:14.246Z,16.85
2019-01-20T13:49:04.711Z,19.00
2019-01-20T13:52:01.861Z,19.30
2019-01-20T13:54:51.883Z,15.93
2019-01-20T13:57:41.602Z,15.23
2019-01-20T14:00:34.052Z,16.20
2019-01-20T14:03:23.649Z,16.20
2019-01-20T14:06:13.258Z,16.35
2019-01-20T14:09:02.334Z,15.63
2019-01-20T14:11:53.264Z,15.23
2019-01-20T14:14:42.480Z,12.45
2019-01-20T14:17:32.061Z,12.20
2019-01-20T14:20:23.274Z,13.20
2019-01-20T14:23:13.079Z,13.70
2019-01-20T14:26:02.452Z,14.83
2019-01-20T14:28:52.983Z,15.08
2019-01-20T14:31:42.505Z,14.58
2019-01-20T14:34:31.478Z,13.80
2019-01-20T14:37:23.757Z,14.85
2019-01-20T14:40:14.025Z,16.07
2019-01-20T14:43:03.268Z,16.48
2019-01-20T14:45:52.622Z,21.80
2019-01-20T14:48:41.981Z,21.30
2019-01-20T14:51:31.171Z,24.35
2019-01-20T14:54:20.530Z,36.60
2019-01-20T14:57:09.751Z,38.63
2019-01-20T14:59:59.071Z,26.10
2019-01-20T15:02:48.298Z,26.52
2019-01-20T15:05:38.187Z,20.55
2019-01-20T15:08:27.579Z,23.52
2019-01-20T15:11:18.087Z,19.05
2019-01-20T15:14:08.220Z,19.20
2019-01-20T15:16:58.291Z,18.73
2019-01-20T15:19:48.014Z,17.73
2019-01-20T15:22:37.650Z,20.30
2019-01-20T15:25:27.117Z,16.82
2019-01-20T15:28:17.077Z,19.60
2019-01-20T15:31:06.968Z,18.60
2019-01-20T15:33:57.267Z,20.65
2019-01-20T15:36:46.968Z,19.00
2019-01-20T15:39:36.832Z,20.00
2019-01-20T15:42:28.210Z,20.35
2019-01-20T15:45:19.161Z,21.33
2019-01-20T15:48:09.140Z,18.65
2019-01-20T15:51:01.621Z,18.95
2019-01-20T15:53:51.017Z,19.00
2019-01-20T15:56:40.818Z,18.70
2019-01-20T15:59:30.099Z,20.00
2019-01-20T16:02:19.288Z,27.10
2019-01-20T16:05:08.600Z,20.68
2019-01-20T16:07:57.807Z,19.35
2019-01-20T16:10:50.398Z,20.20
2019-01-20T16:13:39.995Z,20.90
2019-01-20T16:16:29.088Z,33.02
2019-01-20T16:19:18.487Z,30.15
2019-01-20T16:22:08.028Z,23.80
2019-01-20T16:24:57.318Z,21.57
2019-01-20T16:27:46.517Z,21.12
2019-01-20T16:30:37.986Z,19.85
2019-01-20T16:33:27.521Z,19.82
2019-01-20T16:36:17.506Z,17.07
2019-01-20T16:39:09.231Z,18.10
2019-01-20T16:42:01.143Z,24.10
2019-01-20T16:44:52.369Z,19.23
2019-01-20T16:47:41.864Z,21.15
2019-01-20T16:50:31.381Z,20.55
2019-01-20T16:53:20.750Z,18.02
2019-01-20T16:56:12.521Z,20.50
2019-01-20T16:59:02.410Z,20.35
2019-01-20T17:01:52.292Z,20.90
2019-01-20T17:04:42.639Z,19.85
2019-01-20T17:07:32.200Z,20.57
2019-01-20T17:10:23.320Z,20.97
2019-01-20T17:13:13.515Z,22.05
2019-01-20T17:16:03.337Z,20.65
2019-01-20T17:18:52.951Z,21.52
2019-01-20T17:21:42.305Z,23.85
2019-01-20T17:24:31.911Z,23.15
2019-01-20T17:27:21.229Z,26.33
2019-01-20T17:30:14.167Z,25.68
2019-01-20T17:33:03.612Z,23.02
2019-01-20T17:35:53.041Z,23.92
2019-01-20T17:38:42.831Z,23.90
2019-01-20T17:41:32.248Z,24.50
2019-01-20T17:44:22.730Z,24.85
2019-01-20T17:47:12.261Z,25.25
2019-01-20T17:50:02.200Z,24.12
2019-01-20T17:52:52.880Z,23.02
2019-01-20T17:55:42.873Z,25.10
2019-01-20T17:58:32.768Z,23.73
2019-01-20T18:01:22.821Z,26.35
2019-01-20T18:04:13.018Z,24.27
2019-01-20T18:07:02.485Z,26.45
2019-01-20T18:09:51.991Z,27.40
2019-01-20T18:12:42.231Z,28.05
2019-01-20T18:15:31.929Z,24.70
2019-01-20T18:18:23.198Z,26.33
2019-01-20T18:21:13.365Z,25.02
2019-01-20T18:24:02.830Z,26.15
2019-01-20T18:26:52.008Z,29.00
2019-01-20T18:29:41.713Z,26.07
2019-01-20T18:32:31.999Z,23.27
2019-01-20T18:35:23.222Z,26.37
2019-01-20T18:38:17.135Z,25.30
2019-01-20T18:41:07.511Z,28.55
2019-01-20T18:43:58.051Z,26.42
2019-01-20T18:46:47.229Z,25.30
2019-01-20T18:49:37.013Z,24.18
2019-01-20T18:52:27.641Z,26.70
2019-01-20T18:55:17.382Z,24.70
2019-01-20T18:58:07.701Z,25.43
2019-01-20T19:00:57.290Z,23.70
2019-01-20T19:03:47.459Z,25.65
2019-01-20T19:06:41.068Z,26.50
2019-01-20T19:09:34.412Z,23.85
2019-01-20T19:12:24.919Z,21.77
2019-01-20T19:15:16.394Z,25.92
2019-01-20T19:18:08.739Z,22.35
2019-01-20T19:20:58.259Z,22.98
2019-01-20T19:23:47.458Z,22.95
2019-01-20T19:26:37.479Z,21.65
2019-01-20T19:29:26.813Z,23.00
2019-01-20T19:32:16.445Z,22.95
2019-01-20T19:35:06.822Z,23.45
2019-01-20T19:37:55.809Z,20.95
2019-01-20T19:40:45.904Z,21.70
2019-01-20T19:43:39.991Z,23.32
2019-01-20T19:46:29.728Z,24.10
2019-01-20T19:49:18.852Z,24.40
2019-01-20T19:52:08.410Z,23.67
2019-01-20T19:54:57.762Z,22.25
2019-01-20T19:57:47.630Z,21.55
2019-01-20T20:00:37.252Z,23.47
2019-01-20T20:03:26.802Z,26.07
2019-01-20T20:06:16.042Z,24.57
2019-01-20T20:09:07.030Z,25.27
2019-01-20T20:11:56.470Z,22.07
2019-01-20T20:14:46.051Z,23.07
2019-01-20T20:17:35.632Z,26.48
2019-01-20T20:20:25.139Z,23.62
2019-01-20T20:23:15.578Z,21.80
2019-01-20T20:26:04.820Z,22.82
2019-01-20T20:28:55.102Z,24.45
2019-01-20T20:31:45.602Z,20.65
2019-01-20T20:34:34.785Z,24.30
2019-01-20T20:37:24.034Z,21.33
2019-01-20T20:40:14.654Z,21.62
2019-01-20T20:43:04.973Z,21.77
2019-01-20T20:45:54.249Z,22.35
2019-01-20T20:48:43.574Z,22.27
2019-01-20T20:51:33.102Z,20.55
2019-01-20T20:54:22.350Z,22.75
2019-01-20T20:57:12.654Z,23.92
2019-01-20T21:00:02.324Z,22.07
2019-01-20T21:02:51.663Z,21.25
2019-01-20T21:05:40.910Z,21.93
2019-01-20T21:08:32.295Z,20.55
2019-01-20T21:11:22.078Z,22.13
2019-01-20T21:14:12.008Z,22.22
2019-01-20T21:17:01.191Z,21.65
2019-01-20T21:19:50.535Z,22.73
2019-01-20T21:22:39.764Z,24.43
2019-01-20T21:25:29.051Z,23.35
2019-01-20T21:28:18.602Z,22.20
2019-01-20T21:31:08.113Z,20.35
2019-01-20T21:33:57.544Z,23.95
2019-01-20T21:36:46.849Z,22.37
2019-01-20T21:39:36.233Z,20.92
2019-01-20T21:42:25.439Z,21.57
2019-01-20T21:45:15.294Z,19.10
2019-01-20T21:48:04.499Z,20.00
2019-01-20T21:50:54.031Z,20.15
2019-01-20T21:53:43.422Z,21.97
2019-01-20T21:56:32.802Z,21.05
2019-01-20T21:59:21.750Z,21.42
2019-01-20T22:02:11.083Z,24.18
2019-01-20T22:05:00.370Z,22.13
2019-01-20T22:07:49.668Z,23.20
2019-01-20T22:10:38.981Z,22.98
2019-01-20T22:13:28.429Z,21.15
2019-01-20T22:16:17.720Z,23.73
2019-01-20T22:19:06.983Z,20.02
2019-01-20T22:21:56.213Z,22.40
2019-01-20T22:24:45.518Z,21.00
2019-01-20T22:27:34.710Z,20.95
2019-01-20T22:30:28.043Z,21.97
2019-01-20T22:33:17.352Z,21.85
2019-01-20T22:36:06.795Z,22.25
2019-01-20T22:38:56.070Z,20.72
2019-01-20T22:41:45.271Z,22.07
2019-01-20T22:44:34.518Z,22.93
2019-01-20T22:47:23.914Z,22.40
2019-01-20T22:50:20.400Z,19.95
2019-01-20T22:53:10.684Z,20.97
2019-01-20T22:56:00.591Z,21.77
2019-01-20T22:58:50.300Z,21.30
2019-01-20T23:01:40.244Z,20.37
2019-01-20T23:04:30.369Z,20.12
2019-01-20T23:07:21.060Z,20.77
2019-01-20T23:10:12.381Z,19.55
2019-01-20T23:13:02.353Z,19.60
2019-01-20T23:15:52.818Z,20.80
2019-01-20T23:18:45.255Z,17.75
2019-01-20T23:21:37.835Z,20.15
2019-01-20T23:24:27.859Z,21.35
2019-01-20T23:27:20.432Z,18.42
2019-01-20T23:30:11.579Z,17.80
2019-01-20T23:33:01.323Z,19.45
2019-01-20T23:35:51.280Z,18.73
2019-01-20T23:38:41.619Z,19.17
2019-01-20T23:41:31.560Z,19.62
2019-01-20T23:44:21.689Z,17.87
2019-01-20T23:47:15.276Z,18.85
2019-01-20T23:50:03.459Z,20.48
2019-01-20T23:52:53.453Z,18.55
2019-01-20T23:55:43.318Z,18.07
2019-01-20T23:58:33.742Z,19.07
